Dickinson, ND (58601)

7:02 AM MDT on September 20, 2014 (GMT -0600)
Dickinson South Side | Change Station
CLOSE
Current Station
Personal Weather Station
Location: Dickinson, ND
Elevation: 2408 ft
Nearby Weather Stations

Elev 2408 ft 46.87 °N, 102.79 °W | Updated 136 days ago

Partly Cloudy
Partly Cloudy
53 °F
Feels Like 53 °F
N
11
Wind Variable Wind from West
Gusts 16 mph

Today
High -- | Low -- °F
--% Chance of Precip.
Yesterday
High -- | Low -- °F
Precip. -- in
6:35 AM 6:52 PM
Waning Crescent, 12% visible
Pressure 29.89 in
Visibility 10.0 miles
Clouds Clear
Dew Point 49 °F
Humidity 88%
Rainfall 0.00 in
Snow Depth Not available.
UV 0 out of 12
Pollen 4.50 out of 12
Air Quality Not available.
Flu Activity Not available.
METAR KDIK 201256Z AUTO 27012KT 10SM CLR 12/08 A2991 RMK AO2 SLP121 T01220083

More Conditions Fewer Conditions

Pressure 29.89 in
Visibility 10.0 miles
Clouds Clear
Dew Point 49 °F
Humidity 88%
Rainfall 0.00 in
Snow Depth Not available.
UV 0 out of 12
Pollen 4.50 out of 12
Air Quality Not available.
Flu Activity Not available.
METAR KDIK 201256Z AUTO 27012KT 10SM CLR 12/08 A2991 RMK AO2 SLP121 T01220083

More Conditions Fewer Conditions

10-Day Weather Forecast

Almanac

Astronomy

Sep. 20, 2014 Rise Set
Actual Time 6:35 AM MDT 6:52 PM MDT
Civil Twilight 6:04 AM MDT 7:23 PM MDT
Nautical Twilight 5:29 AM MDT 7:58 PM MDT
Astronomical Twilight 4:52 AM MDT 8:35 PM MDT
Moon 3:06 AM MDT 5:05 PM MDT
Length of Visible Light 13h 18m
Length of Day
12h 17m
Tomorrow will be 3m 20s shorter.
Waning Crescent, 12% of the Moon is Illuminated
Today
Waning Crescent
Sep 24
New
Oct 1
First Quarter
Oct 8
Full
Oct 15
Last Quarter

Today's Extremes

State Highs State Lows

Community

WunderPhotos

Upload Photos

1,754,847 photos uploaded!

Nearby

Snow Depth

Station Depth Elevation
No new snow has been reported.

Earthquake Activity

City Distance Mag. Time & Date
No recent earthquake activity has been reported nearby.
Minimum magnitude displayed is 2.5.

Coastal Water Temperatures

Place Temperature
No Stations Reporting

Nearby Weather Stations